PBD6856 ULMM-UUEE
Flight info
| Callsign | PBD6856 |
|---|---|
| Flight time | 1h 57m |
| Altitude | 35000 |
| Route | ASGOR2P ASGOR T693 PILAN P65 ROMTA ROMTA3F |
| Aircraft | B738/M-SDE2E3FGHIRWXY/LB1 |
Departure
| Time | 2026-04-23 18:33 |
|---|---|
| Airport | Emperor Nicholas II Murmansk Airport (ULMM) |
Arrival
| Time | 2026-04-23 20:30 |
|---|---|
| Airport | Sheremetyevo International Airport (UUEE) |
| Time | Latitude | Longitude | Altitude | Speed | Heading |
|---|---|---|---|---|---|
| 2026-04-23 18:16 | 68.78510 | 32.75597 | 253 ft | 0 kts | 146° |
| 2026-04-23 18:28 | 68.78506 | 32.75603 | 253 ft | 3 kts | 146° |
| 2026-04-23 18:28 | 68.78455 | 32.75601 | 253 ft | 12 kts | 223° |
| 2026-04-23 18:29 | 68.78404 | 32.75422 | 253 ft | 12 kts | 236° |
| 2026-04-23 18:29 | 68.78355 | 32.75217 | 253 ft | 11 kts | 237° |
| 2026-04-23 18:29 | 68.78308 | 32.75027 | 254 ft | 13 kts | 222° |
| 2026-04-23 18:29 | 68.78220 | 32.75053 | 253 ft | 16 kts | 148° |
| 2026-04-23 18:30 | 68.78116 | 32.75242 | 251 ft | 20 kts | 146° |
| 2026-04-23 18:30 | 68.77993 | 32.75467 | 252 ft | 22 kts | 146° |
| 2026-04-23 18:30 | 68.77863 | 32.75710 | 253 ft | 23 kts | 146° |
| 2026-04-23 18:30 | 68.77738 | 32.75941 | 251 ft | 21 kts | 146° |
| 2026-04-23 18:31 | 68.77608 | 32.76184 | 251 ft | 23 kts | 146° |
| 2026-04-23 18:31 | 68.77473 | 32.76434 | 252 ft | 23 kts | 146° |
| 2026-04-23 18:31 | 68.77346 | 32.76668 | 252 ft | 21 kts | 144° |
| 2026-04-23 18:31 | 68.77285 | 32.76833 | 251 ft | 6 kts | 173° |
| 2026-04-23 18:32 | 68.77280 | 32.76809 | 251 ft | 1 kts | 271° |
| 2026-04-23 18:32 | 68.77293 | 32.76776 | 251 ft | 4 kts | 315° |
| 2026-04-23 18:32 | 68.77503 | 32.76372 | 252 ft | 77 kts | 327° |
| 2026-04-23 18:32 | 68.78162 | 32.75154 | 253 ft | 148 kts | 326° |
| 2026-04-23 18:33 | 68.79123 | 32.73304 | 677 ft | 178 kts | 324° |
| 2026-04-23 18:33 | 68.80177 | 32.71296 | 1588 ft | 188 kts | 325° |
| 2026-04-23 18:33 | 68.81266 | 32.69295 | 2424 ft | 193 kts | 326° |
| 2026-04-23 18:33 | 68.82402 | 32.67198 | 2964 ft | 198 kts | 326° |
| 2026-04-23 18:34 | 68.83561 | 32.65054 | 3625 ft | 202 kts | 326° |
| 2026-04-23 18:34 | 68.84730 | 32.62875 | 4374 ft | 204 kts | 326° |
| 2026-04-23 18:34 | 68.85902 | 32.60681 | 5139 ft | 209 kts | 326° |
| 2026-04-23 18:34 | 68.86912 | 32.57766 | 5503 ft | 215 kts | 301° |
| 2026-04-23 18:35 | 68.87303 | 32.53649 | 5544 ft | 234 kts | 276° |
| 2026-04-23 18:35 | 68.86930 | 32.49024 | 5545 ft | 259 kts | 248° |
| 2026-04-23 18:35 | 68.85943 | 32.44724 | 5549 ft | 268 kts | 242° |
| 2026-04-23 18:35 | 68.84876 | 32.40502 | 5557 ft | 268 kts | 236° |
| 2026-04-23 18:36 | 68.83361 | 32.37362 | 5544 ft | 280 kts | 206° |
| 2026-04-23 18:36 | 68.81418 | 32.36645 | 5561 ft | 291 kts | 172° |
| 2026-04-23 18:36 | 68.79530 | 32.38820 | 6015 ft | 298 kts | 149° |
| 2026-04-23 18:36 | 68.77794 | 32.41952 | 6915 ft | 297 kts | 145° |
| 2026-04-23 18:37 | 68.76111 | 32.45246 | 7821 ft | 297 kts | 145° |
| 2026-04-23 18:37 | 68.74415 | 32.48563 | 8674 ft | 300 kts | 146° |
| 2026-04-23 18:37 | 68.72695 | 32.51855 | 9513 ft | 303 kts | 147° |
| 2026-04-23 18:37 | 68.70931 | 32.55168 | 10053 ft | 315 kts | 147° |
| 2026-04-23 18:38 | 68.69046 | 32.58673 | 10245 ft | 339 kts | 147° |
| 2026-04-23 18:38 | 68.66992 | 32.62214 | 10536 ft | 356 kts | 156° |
| 2026-04-23 18:38 | 68.64664 | 32.64639 | 11188 ft | 359 kts | 164° |
| 2026-04-23 18:38 | 68.62280 | 32.66776 | 11952 ft | 362 kts | 165° |
| 2026-04-23 18:39 | 68.59876 | 32.68950 | 12708 ft | 366 kts | 164° |
| 2026-04-23 18:39 | 68.57454 | 32.71210 | 13429 ft | 370 kts | 163° |
| 2026-04-23 18:39 | 68.55011 | 32.73529 | 14089 ft | 373 kts | 163° |
| 2026-04-23 18:39 | 68.52543 | 32.75849 | 14732 ft | 376 kts | 166° |
| 2026-04-23 18:40 | 68.50009 | 32.76810 | 15348 ft | 373 kts | 186° |
| 2026-04-23 18:40 | 68.47418 | 32.76385 | 16046 ft | 374 kts | 187° |
| 2026-04-23 18:40 | 68.44801 | 32.75990 | 16640 ft | 379 kts | 187° |
| 2026-04-23 18:40 | 68.42151 | 32.75669 | 17249 ft | 384 kts | 186° |
| 2026-04-23 18:41 | 68.39463 | 32.75547 | 17865 ft | 389 kts | 184° |
| 2026-04-23 18:41 | 68.36748 | 32.75590 | 18373 ft | 393 kts | 184° |
| 2026-04-23 18:41 | 68.33987 | 32.75683 | 18870 ft | 398 kts | 183° |
| 2026-04-23 18:41 | 68.31199 | 32.75775 | 19354 ft | 403 kts | 183° |
| 2026-04-23 18:42 | 68.28378 | 32.75852 | 19848 ft | 407 kts | 183° |
| 2026-04-23 18:42 | 68.25533 | 32.75912 | 20335 ft | 412 kts | 183° |
| 2026-04-23 18:42 | 68.22651 | 32.75962 | 20816 ft | 416 kts | 183° |
| 2026-04-23 18:42 | 68.19737 | 32.76004 | 21280 ft | 421 kts | 183° |
| 2026-04-23 18:43 | 68.16794 | 32.76045 | 21736 ft | 425 kts | 183° |
| 2026-04-23 18:43 | 68.13819 | 32.76084 | 22195 ft | 430 kts | 183° |
| 2026-04-23 18:43 | 68.10816 | 32.76125 | 22635 ft | 434 kts | 183° |
| 2026-04-23 18:43 | 68.07776 | 32.76167 | 23080 ft | 438 kts | 183° |
| 2026-04-23 18:44 | 68.04711 | 32.76210 | 23435 ft | 442 kts | 183° |
| 2026-04-23 18:44 | 68.01619 | 32.76252 | 23790 ft | 446 kts | 183° |
| 2026-04-23 18:44 | 67.98506 | 32.76294 | 24145 ft | 449 kts | 182° |
| 2026-04-23 18:44 | 67.95368 | 32.76371 | 24495 ft | 453 kts | 182° |
| 2026-04-23 18:45 | 67.92203 | 32.76494 | 24836 ft | 456 kts | 182° |
| 2026-04-23 18:45 | 67.89012 | 32.76636 | 25169 ft | 460 kts | 182° |
| 2026-04-23 18:45 | 67.85807 | 32.76781 | 25517 ft | 463 kts | 181° |
| 2026-04-23 18:45 | 67.82619 | 32.76921 | 25842 ft | 466 kts | 181° |
| 2026-04-23 18:46 | 67.79327 | 32.77059 | 26169 ft | 469 kts | 181° |
| 2026-04-23 18:46 | 67.76095 | 32.77192 | 26481 ft | 472 kts | 181° |
| 2026-04-23 18:46 | 67.72802 | 32.77323 | 26783 ft | 475 kts | 181° |
| 2026-04-23 18:46 | 67.69490 | 32.77455 | 27098 ft | 478 kts | 181° |
| 2026-04-23 18:47 | 67.66157 | 32.77587 | 27411 ft | 480 kts | 181° |
| 2026-04-23 18:47 | 67.62806 | 32.77719 | 27705 ft | 483 kts | 181° |
| 2026-04-23 18:47 | 67.59436 | 32.77852 | 27997 ft | 486 kts | 181° |
| 2026-04-23 18:47 | 67.56042 | 32.77986 | 28279 ft | 489 kts | 181° |
| 2026-04-23 18:48 | 67.52631 | 32.78120 | 28555 ft | 492 kts | 181° |
| 2026-04-23 18:48 | 67.49200 | 32.78255 | 28836 ft | 494 kts | 181° |
| 2026-04-23 18:48 | 67.45752 | 32.78711 | 29075 ft | 499 kts | 175° |
| 2026-04-23 18:48 | 67.42333 | 32.80393 | 29334 ft | 503 kts | 165° |
| 2026-04-23 18:49 | 67.38966 | 32.82955 | 29609 ft | 505 kts | 164° |
| 2026-04-23 18:49 | 67.35601 | 32.85610 | 29873 ft | 506 kts | 163° |
| 2026-04-23 18:49 | 67.32237 | 32.88262 | 30181 ft | 505 kts | 164° |
| 2026-04-23 18:49 | 67.28863 | 32.90884 | 30478 ft | 505 kts | 164° |
| 2026-04-23 18:50 | 67.26636 | 32.92590 | 30650 ft | 506 kts | 164° |
| 2026-04-23 18:50 | 67.22107 | 32.96004 | 30979 ft | 507 kts | 165° |
| 2026-04-23 18:50 | 67.18719 | 32.98527 | 31257 ft | 507 kts | 165° |
| 2026-04-23 18:50 | 67.15325 | 33.01037 | 31528 ft | 507 kts | 165° |
| 2026-04-23 18:51 | 67.11926 | 33.03541 | 31763 ft | 508 kts | 165° |
| 2026-04-23 18:51 | 67.08518 | 33.06047 | 32020 ft | 509 kts | 165° |
| 2026-04-23 18:51 | 67.05116 | 33.08543 | 32294 ft | 509 kts | 165° |
| 2026-04-23 18:51 | 67.01713 | 33.11034 | 32560 ft | 509 kts | 165° |
| 2026-04-23 18:52 | 66.98304 | 33.13524 | 32806 ft | 509 kts | 165° |
| 2026-04-23 18:52 | 66.94897 | 33.16006 | 33039 ft | 510 kts | 165° |
| 2026-04-23 18:52 | 66.91484 | 33.18484 | 33300 ft | 509 kts | 165° |
| 2026-04-23 18:52 | 66.88071 | 33.20957 | 33549 ft | 509 kts | 165° |
| 2026-04-23 18:53 | 66.84666 | 33.23415 | 33780 ft | 508 kts | 165° |
| 2026-04-23 18:53 | 66.81264 | 33.25865 | 34024 ft | 507 kts | 165° |
| 2026-04-23 18:53 | 66.77877 | 33.28297 | 34259 ft | 506 kts | 165° |
| 2026-04-23 18:53 | 66.74532 | 33.30691 | 34441 ft | 506 kts | 164° |
| 2026-04-23 18:54 | 66.71143 | 33.33110 | 34542 ft | 506 kts | 164° |
| 2026-04-23 18:54 | 66.64364 | 33.37929 | 34555 ft | 506 kts | 164° |
| 2026-04-23 18:55 | 66.57583 | 33.42721 | 34560 ft | 506 kts | 164° |
| 2026-04-23 18:55 | 66.50795 | 33.47491 | 34563 ft | 507 kts | 164° |
| 2026-04-23 18:56 | 66.45104 | 33.51472 | 34562 ft | 507 kts | 165° |
| 2026-04-23 18:56 | 66.37208 | 33.56963 | 34566 ft | 507 kts | 165° |
| 2026-04-23 18:57 | 66.30404 | 33.61636 | 34568 ft | 507 kts | 165° |
| 2026-04-23 18:57 | 66.23601 | 33.66266 | 34568 ft | 507 kts | 165° |
| 2026-04-23 18:58 | 66.16798 | 33.70877 | 34576 ft | 507 kts | 165° |
| 2026-04-23 18:58 | 66.09991 | 33.75469 | 34574 ft | 507 kts | 165° |
| 2026-04-23 18:59 | 66.03193 | 33.80032 | 34578 ft | 506 kts | 165° |
| 2026-04-23 18:59 | 65.96394 | 33.84570 | 34579 ft | 506 kts | 165° |
| 2026-04-23 19:00 | 65.89597 | 33.89073 | 34580 ft | 506 kts | 165° |
| 2026-04-23 19:00 | 65.82804 | 33.93547 | 34586 ft | 506 kts | 165° |
| 2026-04-23 19:01 | 65.76005 | 33.98004 | 34586 ft | 505 kts | 165° |
| 2026-04-23 19:01 | 65.69254 | 34.02406 | 34590 ft | 505 kts | 165° |
| 2026-04-23 19:02 | 65.63567 | 34.06097 | 34589 ft | 505 kts | 165° |
| 2026-04-23 19:02 | 65.55676 | 34.11190 | 34592 ft | 505 kts | 165° |
| 2026-04-23 19:03 | 65.48887 | 34.15546 | 34597 ft | 505 kts | 165° |
| 2026-04-23 19:03 | 65.42101 | 34.19877 | 34594 ft | 505 kts | 165° |
| 2026-04-23 19:04 | 65.35310 | 34.24188 | 34603 ft | 505 kts | 165° |
| 2026-04-23 19:04 | 65.28520 | 34.28475 | 34597 ft | 505 kts | 165° |
| 2026-04-23 19:05 | 65.21726 | 34.32742 | 34606 ft | 504 kts | 165° |
| 2026-04-23 19:05 | 65.14935 | 34.36985 | 34610 ft | 504 kts | 165° |
| 2026-04-23 19:06 | 65.08141 | 34.41208 | 34608 ft | 505 kts | 165° |
| 2026-04-23 19:06 | 65.01352 | 34.45407 | 34605 ft | 504 kts | 165° |
| 2026-04-23 19:07 | 64.94559 | 34.49586 | 34608 ft | 504 kts | 165° |
| 2026-04-23 19:07 | 64.87832 | 34.54291 | 34609 ft | 504 kts | 161° |
| 2026-04-23 19:08 | 64.81166 | 34.59387 | 34612 ft | 504 kts | 161° |
| 2026-04-23 19:08 | 64.74491 | 34.64386 | 34618 ft | 504 kts | 161° |
| 2026-04-23 19:09 | 64.67842 | 34.69243 | 34617 ft | 504 kts | 162° |
| 2026-04-23 19:09 | 64.61148 | 34.74087 | 34619 ft | 503 kts | 162° |
| 2026-04-23 19:10 | 64.54460 | 34.78911 | 34622 ft | 503 kts | 162° |
| 2026-04-23 19:10 | 64.47768 | 34.83719 | 34624 ft | 503 kts | 162° |
| 2026-04-23 19:11 | 64.41092 | 34.88583 | 34626 ft | 503 kts | 161° |
| 2026-04-23 19:11 | 64.34439 | 34.93600 | 34624 ft | 502 kts | 161° |
| 2026-04-23 19:12 | 64.28916 | 34.97750 | 34624 ft | 502 kts | 161° |
| 2026-04-23 19:12 | 64.21138 | 35.03527 | 34629 ft | 502 kts | 161° |
| 2026-04-23 19:13 | 64.14488 | 35.08430 | 34634 ft | 502 kts | 161° |
| 2026-04-23 19:13 | 64.07881 | 35.13281 | 34634 ft | 502 kts | 161° |
| 2026-04-23 19:14 | 64.01273 | 35.18379 | 34634 ft | 501 kts | 159° |
| 2026-04-23 19:14 | 63.94715 | 35.23724 | 34639 ft | 501 kts | 159° |
| 2026-04-23 19:15 | 63.88141 | 35.29011 | 34641 ft | 500 kts | 159° |
| 2026-04-23 19:15 | 63.82682 | 35.33339 | 34642 ft | 500 kts | 159° |
| 2026-04-23 19:16 | 63.76109 | 35.38523 | 34643 ft | 500 kts | 159° |
| 2026-04-23 19:16 | 63.69537 | 35.43674 | 34639 ft | 500 kts | 159° |
| 2026-04-23 19:17 | 63.59676 | 35.51252 | 34643 ft | 499 kts | 161° |
| 2026-04-23 19:17 | 63.53033 | 35.55873 | 34657 ft | 499 kts | 162° |
| 2026-04-23 19:18 | 63.46394 | 35.60424 | 34655 ft | 499 kts | 161° |
| 2026-04-23 19:18 | 63.39768 | 35.65008 | 34653 ft | 498 kts | 161° |
| 2026-04-23 19:19 | 63.29841 | 35.71878 | 34657 ft | 498 kts | 161° |
| 2026-04-23 19:20 | 63.19914 | 35.78694 | 34653 ft | 498 kts | 161° |
| 2026-04-23 19:20 | 63.13298 | 35.83210 | 34655 ft | 498 kts | 161° |
| 2026-04-23 19:21 | 63.03383 | 35.90050 | 34658 ft | 498 kts | 161° |
| 2026-04-23 19:22 | 62.96817 | 35.94570 | 34666 ft | 497 kts | 161° |
| 2026-04-23 19:22 | 62.86904 | 36.01339 | 34664 ft | 497 kts | 161° |
| 2026-04-23 19:23 | 62.80286 | 36.05773 | 34662 ft | 497 kts | 162° |
| 2026-04-23 19:24 | 62.70352 | 36.12352 | 34661 ft | 497 kts | 162° |
| 2026-04-23 19:24 | 62.60420 | 36.18902 | 34659 ft | 497 kts | 162° |
| 2026-04-23 19:25 | 62.47180 | 36.27569 | 34665 ft | 496 kts | 162° |
| 2026-04-23 19:26 | 62.37270 | 36.34003 | 34666 ft | 496 kts | 162° |
| 2026-04-23 19:27 | 62.20768 | 36.44619 | 34666 ft | 494 kts | 162° |
| 2026-04-23 19:28 | 62.07636 | 36.52981 | 34666 ft | 493 kts | 162° |
| 2026-04-23 19:29 | 61.97774 | 36.59212 | 34669 ft | 492 kts | 162° |
| 2026-04-23 19:30 | 61.87923 | 36.65397 | 34670 ft | 492 kts | 162° |
| 2026-04-23 19:31 | 61.78091 | 36.71543 | 34674 ft | 491 kts | 162° |
| 2026-04-23 19:31 | 61.71546 | 36.75626 | 34668 ft | 490 kts | 162° |
| 2026-04-23 19:32 | 61.65007 | 36.79685 | 34666 ft | 490 kts | 162° |
| 2026-04-23 19:32 | 61.58476 | 36.83722 | 34664 ft | 489 kts | 162° |
| 2026-04-23 19:33 | 61.51943 | 36.87741 | 34665 ft | 489 kts | 162° |
| 2026-04-23 19:33 | 61.42201 | 36.93703 | 34663 ft | 488 kts | 162° |
| 2026-04-23 19:34 | 61.35685 | 36.97670 | 34661 ft | 488 kts | 162° |
| 2026-04-23 19:35 | 61.25919 | 37.03653 | 34658 ft | 487 kts | 162° |
| 2026-04-23 19:35 | 61.19443 | 37.07824 | 34660 ft | 487 kts | 161° |
| 2026-04-23 19:36 | 61.12968 | 37.11993 | 34660 ft | 487 kts | 161° |
| 2026-04-23 19:36 | 61.06487 | 37.16118 | 34657 ft | 487 kts | 162° |
| 2026-04-23 19:37 | 61.00007 | 37.20213 | 34651 ft | 487 kts | 162° |
| 2026-04-23 19:37 | 60.93534 | 37.24288 | 34650 ft | 486 kts | 162° |
| 2026-04-23 19:38 | 60.87060 | 37.28349 | 34649 ft | 486 kts | 162° |
| 2026-04-23 19:38 | 60.80587 | 37.32390 | 34650 ft | 486 kts | 162° |
| 2026-04-23 19:39 | 60.74167 | 37.36388 | 34649 ft | 485 kts | 162° |
| 2026-04-23 19:39 | 60.67711 | 37.40393 | 34650 ft | 485 kts | 162° |
| 2026-04-23 19:40 | 60.61249 | 37.44386 | 34643 ft | 485 kts | 162° |
| 2026-04-23 19:40 | 60.54802 | 37.48353 | 34638 ft | 484 kts | 162° |
| 2026-04-23 19:41 | 60.48353 | 37.52306 | 34638 ft | 484 kts | 162° |
| 2026-04-23 19:41 | 60.41879 | 37.55992 | 34639 ft | 483 kts | 165° |
| 2026-04-23 19:42 | 60.35336 | 37.59125 | 34636 ft | 483 kts | 166° |
| 2026-04-23 19:42 | 60.28795 | 37.62244 | 34632 ft | 482 kts | 166° |
| 2026-04-23 19:43 | 60.22271 | 37.65436 | 34632 ft | 482 kts | 165° |
| 2026-04-23 19:43 | 60.15765 | 37.68637 | 34627 ft | 481 kts | 165° |
| 2026-04-23 19:44 | 60.09260 | 37.71820 | 34627 ft | 481 kts | 166° |
| 2026-04-23 19:44 | 60.02765 | 37.74982 | 34624 ft | 480 kts | 166° |
| 2026-04-23 19:45 | 59.96231 | 37.77779 | 34624 ft | 480 kts | 169° |
| 2026-04-23 19:45 | 59.89654 | 37.80096 | 34621 ft | 480 kts | 169° |
| 2026-04-23 19:46 | 59.83089 | 37.82460 | 34614 ft | 479 kts | 169° |
| 2026-04-23 19:46 | 59.76576 | 37.84879 | 34616 ft | 479 kts | 169° |
| 2026-04-23 19:47 | 59.71090 | 37.86917 | 34611 ft | 479 kts | 169° |
| 2026-04-23 19:47 | 59.63471 | 37.89627 | 34614 ft | 478 kts | 170° |
| 2026-04-23 19:48 | 59.56913 | 37.91855 | 34607 ft | 478 kts | 169° |
| 2026-04-23 19:48 | 59.50362 | 37.94123 | 34609 ft | 478 kts | 169° |
| 2026-04-23 19:49 | 59.43814 | 37.96385 | 34609 ft | 477 kts | 169° |
| 2026-04-23 19:49 | 59.37275 | 37.98630 | 34611 ft | 477 kts | 169° |
| 2026-04-23 19:50 | 59.30737 | 38.00865 | 34610 ft | 477 kts | 169° |
| 2026-04-23 19:50 | 59.24143 | 38.01594 | 34608 ft | 476 kts | 185° |
| 2026-04-23 19:51 | 59.17548 | 38.00404 | 34608 ft | 476 kts | 186° |
| 2026-04-23 19:51 | 59.10965 | 37.99217 | 34608 ft | 475 kts | 185° |
| 2026-04-23 19:52 | 59.05486 | 37.98313 | 34602 ft | 475 kts | 185° |
| 2026-04-23 19:52 | 58.97783 | 37.97093 | 34601 ft | 475 kts | 185° |
| 2026-04-23 19:53 | 58.91201 | 37.96051 | 34598 ft | 475 kts | 185° |
| 2026-04-23 19:53 | 58.84621 | 37.95009 | 34597 ft | 474 kts | 185° |
| 2026-04-23 19:54 | 58.78042 | 37.93938 | 34593 ft | 474 kts | 185° |
| 2026-04-23 19:54 | 58.71510 | 37.92869 | 34593 ft | 474 kts | 185° |
| 2026-04-23 19:55 | 58.64932 | 37.91835 | 34594 ft | 474 kts | 184° |
| 2026-04-23 19:55 | 58.58347 | 37.90946 | 34590 ft | 474 kts | 184° |
| 2026-04-23 19:56 | 58.51765 | 37.90084 | 34588 ft | 474 kts | 184° |
| 2026-04-23 19:56 | 58.45184 | 37.89207 | 34591 ft | 474 kts | 184° |
| 2026-04-23 19:57 | 58.38605 | 37.88322 | 34586 ft | 474 kts | 184° |
| 2026-04-23 19:57 | 58.33139 | 37.87588 | 34585 ft | 474 kts | 184° |
| 2026-04-23 19:58 | 58.25444 | 37.86559 | 34586 ft | 474 kts | 184° |
| 2026-04-23 19:58 | 58.18950 | 37.85695 | 34130 ft | 462 kts | 184° |
| 2026-04-23 19:58 | 58.15757 | 37.85271 | 33653 ft | 460 kts | 184° |
| 2026-04-23 19:59 | 58.12560 | 37.84847 | 33093 ft | 459 kts | 184° |
| 2026-04-23 19:59 | 58.09417 | 37.84431 | 32620 ft | 456 kts | 184° |
| 2026-04-23 19:59 | 58.06270 | 37.84016 | 32255 ft | 451 kts | 184° |
| 2026-04-23 19:59 | 58.03158 | 37.83606 | 31869 ft | 446 kts | 184° |
| 2026-04-23 20:00 | 58.00067 | 37.83199 | 31447 ft | 443 kts | 184° |
| 2026-04-23 20:00 | 57.96987 | 37.82795 | 31037 ft | 439 kts | 184° |
| 2026-04-23 20:00 | 57.93970 | 37.82399 | 30658 ft | 436 kts | 184° |
| 2026-04-23 20:00 | 57.90956 | 37.82004 | 30262 ft | 432 kts | 184° |
| 2026-04-23 20:01 | 57.87965 | 37.81613 | 29877 ft | 429 kts | 184° |
| 2026-04-23 20:01 | 57.84997 | 37.81226 | 29430 ft | 426 kts | 184° |
| 2026-04-23 20:01 | 57.82055 | 37.80842 | 29037 ft | 421 kts | 184° |
| 2026-04-23 20:01 | 57.79157 | 37.80442 | 28642 ft | 415 kts | 185° |
| 2026-04-23 20:02 | 57.76292 | 37.80029 | 28215 ft | 411 kts | 185° |
| 2026-04-23 20:02 | 57.73464 | 37.79618 | 27903 ft | 404 kts | 185° |
| 2026-04-23 20:02 | 57.70677 | 37.79213 | 27504 ft | 400 kts | 185° |
| 2026-04-23 20:02 | 57.67919 | 37.78816 | 27096 ft | 396 kts | 185° |
| 2026-04-23 20:03 | 57.65193 | 37.78425 | 26738 ft | 391 kts | 185° |
| 2026-04-23 20:03 | 57.63406 | 37.78170 | 26507 ft | 387 kts | 185° |
| 2026-04-23 20:03 | 57.60737 | 37.77790 | 26157 ft | 382 kts | 185° |
| 2026-04-23 20:03 | 57.58102 | 37.77416 | 25805 ft | 377 kts | 185° |
| 2026-04-23 20:04 | 57.54658 | 37.76927 | 25325 ft | 372 kts | 185° |
| 2026-04-23 20:04 | 57.52091 | 37.76562 | 24952 ft | 368 kts | 185° |
| 2026-04-23 20:04 | 57.50371 | 37.76319 | 24698 ft | 366 kts | 185° |
| 2026-04-23 20:04 | 57.47847 | 37.75963 | 24360 ft | 362 kts | 185° |
| 2026-04-23 20:05 | 57.45349 | 37.75616 | 24003 ft | 358 kts | 185° |
| 2026-04-23 20:05 | 57.42875 | 37.75293 | 23644 ft | 355 kts | 185° |
| 2026-04-23 20:05 | 57.40419 | 37.74980 | 23304 ft | 352 kts | 185° |
| 2026-04-23 20:05 | 57.37988 | 37.74672 | 22932 ft | 348 kts | 185° |
| 2026-04-23 20:06 | 57.35581 | 37.74365 | 22469 ft | 346 kts | 185° |
| 2026-04-23 20:06 | 57.33186 | 37.74059 | 22017 ft | 344 kts | 185° |
| 2026-04-23 20:06 | 57.30799 | 37.73753 | 21557 ft | 343 kts | 185° |
| 2026-04-23 20:06 | 57.28427 | 37.73449 | 21118 ft | 341 kts | 185° |
| 2026-04-23 20:07 | 57.26092 | 37.73150 | 20688 ft | 340 kts | 185° |
| 2026-04-23 20:07 | 57.23741 | 37.72849 | 20266 ft | 338 kts | 185° |
| 2026-04-23 20:07 | 57.21399 | 37.72550 | 19859 ft | 336 kts | 185° |
| 2026-04-23 20:07 | 57.19071 | 37.72253 | 19446 ft | 335 kts | 185° |
| 2026-04-23 20:08 | 57.16753 | 37.71957 | 19032 ft | 333 kts | 185° |
| 2026-04-23 20:08 | 57.14440 | 37.71663 | 18658 ft | 332 kts | 185° |
| 2026-04-23 20:08 | 57.12147 | 37.71372 | 18285 ft | 330 kts | 185° |
| 2026-04-23 20:08 | 57.09895 | 37.70679 | 17840 ft | 328 kts | 200° |
| 2026-04-23 20:09 | 57.07774 | 37.69168 | 17389 ft | 327 kts | 203° |
| 2026-04-23 20:09 | 57.05648 | 37.67543 | 16764 ft | 331 kts | 203° |
| 2026-04-23 20:09 | 57.03529 | 37.65910 | 16349 ft | 330 kts | 203° |
| 2026-04-23 20:09 | 57.01423 | 37.64301 | 15992 ft | 327 kts | 203° |
| 2026-04-23 20:10 | 56.99330 | 37.62718 | 15643 ft | 324 kts | 203° |
| 2026-04-23 20:10 | 56.97255 | 37.61163 | 15327 ft | 321 kts | 202° |
| 2026-04-23 20:10 | 56.95187 | 37.59622 | 15001 ft | 321 kts | 202° |
| 2026-04-23 20:10 | 56.93118 | 37.58087 | 14673 ft | 320 kts | 202° |
| 2026-04-23 20:11 | 56.91053 | 37.56560 | 14357 ft | 320 kts | 202° |
| 2026-04-23 20:11 | 56.88989 | 37.55036 | 14029 ft | 320 kts | 202° |
| 2026-04-23 20:11 | 56.86921 | 37.53512 | 13717 ft | 320 kts | 202° |
| 2026-04-23 20:11 | 56.84857 | 37.51994 | 13385 ft | 320 kts | 202° |
| 2026-04-23 20:12 | 56.82785 | 37.50471 | 13021 ft | 321 kts | 202° |
| 2026-04-23 20:12 | 56.80712 | 37.48950 | 12679 ft | 321 kts | 202° |
| 2026-04-23 20:12 | 56.78641 | 37.47431 | 12348 ft | 321 kts | 202° |
| 2026-04-23 20:12 | 56.76599 | 37.45937 | 12021 ft | 321 kts | 202° |
| 2026-04-23 20:13 | 56.74527 | 37.44420 | 11697 ft | 321 kts | 202° |
| 2026-04-23 20:13 | 56.72460 | 37.42909 | 11374 ft | 321 kts | 202° |
| 2026-04-23 20:13 | 56.70387 | 37.41397 | 11041 ft | 320 kts | 202° |
| 2026-04-23 20:13 | 56.68326 | 37.39896 | 10713 ft | 318 kts | 202° |
| 2026-04-23 20:14 | 56.66282 | 37.38402 | 10401 ft | 315 kts | 203° |
| 2026-04-23 20:14 | 56.64266 | 37.36882 | 10101 ft | 312 kts | 203° |
| 2026-04-23 20:14 | 56.62273 | 37.35363 | 9812 ft | 309 kts | 203° |
| 2026-04-23 20:14 | 56.60300 | 37.33861 | 9568 ft | 305 kts | 203° |
| 2026-04-23 20:15 | 56.58344 | 37.32377 | 9287 ft | 302 kts | 203° |
| 2026-04-23 20:15 | 56.56418 | 37.30921 | 9058 ft | 297 kts | 203° |
| 2026-04-23 20:15 | 56.54546 | 37.29509 | 9011 ft | 286 kts | 203° |
| 2026-04-23 20:15 | 56.52725 | 37.28162 | 8941 ft | 282 kts | 202° |
| 2026-04-23 20:16 | 56.50887 | 37.26884 | 8763 ft | 283 kts | 201° |
| 2026-04-23 20:16 | 56.49038 | 37.25616 | 8595 ft | 285 kts | 201° |
| 2026-04-23 20:16 | 56.47176 | 37.24336 | 8437 ft | 287 kts | 201° |
| 2026-04-23 20:16 | 56.45305 | 37.23046 | 8266 ft | 288 kts | 201° |
| 2026-04-23 20:17 | 56.43371 | 37.22169 | 8072 ft | 288 kts | 179° |
| 2026-04-23 20:17 | 56.41405 | 37.22606 | 7949 ft | 284 kts | 166° |
| 2026-04-23 20:17 | 56.39475 | 37.23389 | 7785 ft | 285 kts | 164° |
| 2026-04-23 20:17 | 56.37545 | 37.24205 | 7622 ft | 285 kts | 164° |
| 2026-04-23 20:18 | 56.35611 | 37.25015 | 7456 ft | 286 kts | 164° |
| 2026-04-23 20:18 | 56.33671 | 37.25813 | 7302 ft | 286 kts | 164° |
| 2026-04-23 20:18 | 56.31735 | 37.26596 | 7119 ft | 283 kts | 164° |
| 2026-04-23 20:18 | 56.29827 | 37.27360 | 6957 ft | 279 kts | 164° |
| 2026-04-23 20:19 | 56.27935 | 37.28113 | 6797 ft | 277 kts | 164° |
| 2026-04-23 20:19 | 56.26052 | 37.28861 | 6641 ft | 277 kts | 164° |
| 2026-04-23 20:19 | 56.24181 | 37.29662 | 6490 ft | 276 kts | 161° |
| 2026-04-23 20:19 | 56.22357 | 37.30569 | 6329 ft | 276 kts | 160° |
| 2026-04-23 20:20 | 56.20516 | 37.31500 | 6156 ft | 272 kts | 160° |
| 2026-04-23 20:20 | 56.18767 | 37.32613 | 5978 ft | 261 kts | 142° |
| 2026-04-23 20:20 | 56.17544 | 37.34792 | 5844 ft | 239 kts | 112° |
| 2026-04-23 20:20 | 56.17003 | 37.37473 | 5713 ft | 222 kts | 92° |
| 2026-04-23 20:21 | 56.16985 | 37.40171 | 5595 ft | 212 kts | 74° |
| 2026-04-23 20:21 | 56.17322 | 37.42739 | 5487 ft | 212 kts | 69° |
| 2026-04-23 20:21 | 56.17716 | 37.45299 | 5365 ft | 214 kts | 69° |
| 2026-04-23 20:21 | 56.18114 | 37.47888 | 5248 ft | 216 kts | 69° |
| 2026-04-23 20:22 | 56.18508 | 37.50485 | 5116 ft | 215 kts | 69° |
| 2026-04-23 20:22 | 56.18898 | 37.53073 | 4987 ft | 215 kts | 69° |
| 2026-04-23 20:22 | 56.19283 | 37.55638 | 4866 ft | 214 kts | 70° |
| 2026-04-23 20:22 | 56.19337 | 37.58342 | 4717 ft | 226 kts | 98° |
| 2026-04-23 20:23 | 56.18603 | 37.60887 | 4596 ft | 236 kts | 122° |
| 2026-04-23 20:23 | 56.17481 | 37.63071 | 4486 ft | 239 kts | 128° |
| 2026-04-23 20:23 | 56.16294 | 37.65181 | 4337 ft | 241 kts | 128° |
| 2026-04-23 20:23 | 56.15107 | 37.67300 | 4190 ft | 241 kts | 128° |
| 2026-04-23 20:24 | 56.13925 | 37.69435 | 4037 ft | 241 kts | 127° |
| 2026-04-23 20:24 | 56.12750 | 37.71572 | 3913 ft | 239 kts | 127° |
| 2026-04-23 20:24 | 56.11594 | 37.73677 | 3747 ft | 235 kts | 127° |
| 2026-04-23 20:24 | 56.10454 | 37.75742 | 3621 ft | 232 kts | 129° |
| 2026-04-23 20:25 | 56.09020 | 37.77117 | 3478 ft | 244 kts | 167° |
| 2026-04-23 20:25 | 56.07326 | 37.76815 | 3376 ft | 249 kts | 197° |
| 2026-04-23 20:25 | 56.05671 | 37.75840 | 3255 ft | 253 kts | 198° |
| 2026-04-23 20:25 | 56.03996 | 37.74854 | 3095 ft | 249 kts | 198° |
| 2026-04-23 20:26 | 56.02508 | 37.73534 | 2905 ft | 229 kts | 227° |
| 2026-04-23 20:26 | 56.01626 | 37.71401 | 2797 ft | 203 kts | 251° |
| 2026-04-23 20:26 | 56.01182 | 37.69131 | 2694 ft | 186 kts | 264° |
| 2026-04-23 20:26 | 56.00868 | 37.66996 | 2628 ft | 173 kts | 266° |
| 2026-04-23 20:27 | 56.00614 | 37.64920 | 2513 ft | 169 kts | 268° |
| 2026-04-23 20:27 | 56.00346 | 37.62921 | 2493 ft | 166 kts | 266° |
| 2026-04-23 20:27 | 56.00051 | 37.60892 | 2516 ft | 169 kts | 265° |
| 2026-04-23 20:27 | 55.99753 | 37.58841 | 2368 ft | 172 kts | 264° |
| 2026-04-23 20:28 | 55.99435 | 37.56809 | 2160 ft | 167 kts | 264° |
| 2026-04-23 20:28 | 55.99133 | 37.54821 | 1878 ft | 166 kts | 263° |
| 2026-04-23 20:28 | 55.98818 | 37.52876 | 1669 ft | 160 kts | 262° |
| 2026-04-23 20:28 | 55.98549 | 37.50948 | 1416 ft | 161 kts | 263° |
| 2026-04-23 20:29 | 55.98269 | 37.49002 | 1189 ft | 161 kts | 258° |
| 2026-04-23 20:29 | 55.97975 | 37.47121 | 993 ft | 156 kts | 258° |
| 2026-04-23 20:29 | 55.97711 | 37.45304 | 791 ft | 151 kts | 258° |
| 2026-04-23 20:29 | 55.97442 | 37.43517 | 643 ft | 142 kts | 258° |
| 2026-04-23 20:30 | 55.97220 | 37.42018 | 637 ft | 104 kts | 256° |
| 2026-04-23 20:30 | 55.96984 | 37.40561 | 643 ft | 33 kts | 240° |
| 2026-04-23 20:30 | 55.96896 | 37.40360 | 641 ft | 9 kts | 225° |
| 2026-04-23 20:31 | 55.96852 | 37.40281 | 639 ft | 9 kts | 225° |
| 2026-04-23 20:31 | 55.96805 | 37.40200 | 640 ft | 11 kts | 222° |
| 2026-04-23 20:31 | 55.96731 | 37.40138 | 642 ft | 14 kts | 199° |
| 2026-04-23 20:31 | 55.96634 | 37.40152 | 638 ft | 14 kts | 163° |
| 2026-04-23 20:32 | 55.96550 | 37.40186 | 640 ft | 11 kts | 183° |
| 2026-04-23 20:32 | 55.96540 | 37.40181 | 639 ft | 0 kts | 198° |
| 2026-04-23 20:32 | 55.96501 | 37.40094 | 644 ft | 0 kts | 75° |